createdAt,value
2023-01-19T03:07:18.993Z,23.94
2023-01-19T03:08:33.144Z,23.38
2023-01-19T03:17:56.252Z,26.62
2023-01-19T03:42:32.655Z,25.62
2023-01-19T03:44:21.864Z,23.75
2023-01-19T03:45:19.430Z,19.94
2023-01-19T03:47:33.279Z,22.75
2023-01-19T04:14:09.993Z,30.12
2023-01-19T04:45:32.717Z,27.00
2023-01-19T04:46:37.214Z,22.94
2023-01-19T04:47:45.167Z,24.19
2023-01-19T04:49:04.743Z,22.31
2023-01-19T05:11:16.462Z,42.33
2023-01-19T05:11:39.023Z,39.00
2023-01-19T05:17:49.015Z,34.94
2023-01-19T05:18:34.263Z,29.63
2023-01-19T05:19:39.974Z,31.69
2023-01-19T05:21:36.238Z,31.12
2023-01-19T05:35:35.188Z,28.44
2023-01-19T05:36:34.968Z,25.94
2023-01-19T05:37:41.637Z,27.60
2023-01-19T05:38:48.403Z,25.06
2023-01-19T05:39:53.671Z,20.06
2023-01-19T05:40:59.754Z,34.56
2023-01-19T05:42:41.643Z,34.13
2023-01-19T05:46:06.760Z,26.50
2023-01-19T05:47:13.495Z,36.33
2023-01-19T05:48:18.838Z,46.25
2023-01-19T05:49:28.715Z,38.19
2023-01-19T05:50:37.474Z,29.12
2023-01-19T05:52:02.936Z,38.44
2023-01-19T05:54:16.856Z,25.13
2023-01-19T05:55:48.174Z,23.25
2023-01-19T05:58:06.349Z,16.75
2023-01-19T05:59:10.984Z,17.37
2023-01-19T06:00:18.730Z,17.37
2023-01-19T06:01:28.268Z,14.94
2023-01-19T06:02:33.975Z,16.81
2023-01-19T06:03:40.232Z,16.56
2023-01-19T06:04:50.186Z,16.44
2023-01-19T06:06:00.211Z,18.25
2023-01-19T06:07:29.146Z,14.19
2023-01-19T06:08:34.781Z,14.25
2023-01-19T06:09:45.175Z,11.81
2023-01-19T06:10:52.660Z,16.06
2023-01-19T06:12:00.863Z,17.50
2023-01-19T06:13:21.834Z,17.75
2023-01-19T06:14:27.666Z,17.62
2023-01-19T06:15:20.603Z,14.94
2023-01-19T06:16:26.321Z,18.56
2023-01-19T06:17:33.898Z,14.81
2023-01-19T06:18:40.841Z,20.19
2023-01-19T06:19:48.872Z,20.12
2023-01-19T06:20:56.280Z,16.94
2023-01-19T06:22:02.050Z,15.50
2023-01-19T06:23:13.487Z,20.12
2023-01-19T06:24:27.031Z,15.25
2023-01-19T06:26:45.251Z,15.00
2023-01-19T06:27:12.803Z,16.56
2023-01-19T06:28:02.490Z,19.37
2023-01-19T06:29:23.307Z,19.81
2023-01-19T06:30:11.777Z,17.37
2023-01-19T06:31:17.290Z,23.75
2023-01-19T06:32:26.160Z,20.44
2023-01-19T06:33:28.968Z,18.69
2023-01-19T06:34:33.209Z,26.44
2023-01-19T06:35:38.908Z,21.12
2023-01-19T06:37:02.847Z,23.87
2023-01-19T06:37:54.943Z,21.12
2023-01-19T06:39:02.139Z,22.00
2023-01-19T06:40:12.048Z,25.94
2023-01-19T06:41:23.144Z,24.75
2023-01-19T06:42:33.762Z,24.31
2023-01-19T06:43:54.193Z,21.56
2023-01-19T06:44:44.952Z,21.25
2023-01-19T06:45:54.654Z,19.37
2023-01-19T06:47:47.982Z,22.31
2023-01-19T06:48:12.017Z,21.06
2023-01-19T06:49:22.234Z,22.13
2023-01-19T06:50:40.589Z,21.06
2023-01-19T06:51:38.925Z,20.94
2023-01-19T06:52:44.604Z,22.25
2023-01-19T06:54:02.547Z,20.19
2023-01-19T06:56:35.176Z,19.31
2023-01-19T06:57:37.298Z,19.19
2023-01-19T06:58:44.134Z,20.44
2023-01-19T06:59:46.604Z,22.27
2023-01-19T07:00:53.324Z,22.81
2023-01-19T07:02:28.006Z,22.13
2023-01-19T07:04:42.073Z,23.75
2023-01-19T07:05:47.710Z,18.31
2023-01-19T07:06:59.236Z,15.75
2023-01-19T07:07:58.658Z,20.56
2023-01-19T07:09:37.025Z,17.19
2023-01-19T07:10:24.797Z,17.69
2023-01-19T07:11:32.494Z,16.25
2023-01-19T07:12:44.706Z,17.81
2023-01-19T07:34:37.633Z,13.56
2023-01-19T07:35:45.072Z,19.06
2023-01-19T07:36:52.276Z,16.75
2023-01-19T07:37:57.927Z,18.50
2023-01-19T07:39:08.790Z,20.31
2023-01-19T12:42:14.660Z,32.47
2023-01-19T12:43:21.826Z,31.12
2023-01-19T12:45:20.866Z,32.31
2023-01-19T12:45:55.319Z,33.00
2023-01-19T13:29:02.657Z,22.00
2023-01-19T13:29:34.346Z,21.94
2023-01-19T13:30:41.517Z,15.31
2023-01-19T13:33:17.598Z,25.13
2023-01-19T13:34:30.374Z,24.50
2023-01-19T13:52:18.418Z,26.37
2023-01-19T13:53:32.082Z,27.75
2023-01-19T13:55:54.177Z,28.25
2023-01-19T14:26:50.295Z,33.81
2023-01-19T14:28:20.603Z,28.06
2023-01-19T14:44:22.925Z,27.25
2023-01-19T14:45:08.147Z,34.73
2023-01-19T14:51:03.111Z,31.12
2023-01-19T14:52:02.235Z,31.50
2023-01-19T14:53:11.566Z,30.50
2023-01-19T14:54:22.225Z,31.31
2023-01-19T14:55:36.557Z,29.75
2023-01-19T14:56:41.838Z,31.75
2023-01-19T14:57:48.187Z,31.12
2023-01-19T15:13:24.440Z,24.81
2023-01-19T15:34:21.849Z,30.94
2023-01-19T15:35:49.179Z,30.31
2023-01-19T15:38:11.244Z,29.75
2023-01-19T15:39:27.348Z,29.87
2023-01-19T15:40:34.400Z,28.19
2023-01-19T15:41:43.484Z,30.44
2023-01-19T16:16:10.677Z,31.25
2023-01-19T16:18:37.643Z,31.12
2023-01-19T16:19:58.313Z,31.87
2023-01-19T20:33:06.155Z,25.88
2023-01-19T20:47:55.697Z,24.63
2023-01-19T20:48:56.747Z,22.56
2023-01-19T20:50:08.773Z,23.25
2023-01-19T21:56:50.698Z,19.87
2023-01-19T21:58:46.101Z,20.06
2023-01-19T22:00:00.399Z,22.13
2023-01-19T22:01:53.057Z,22.69
2023-01-19T22:02:29.865Z,21.44
